CST,Max TemperatureF,Mean TemperatureF,Min TemperatureF,Max Dew PointF,MeanDew PointF,Min DewpointF,Max Humidity, Mean Humidity, Min Humidity, Max Sea Level PressureIn, Mean Sea Level PressureIn, Min Sea Level PressureIn, Max VisibilityMiles, Mean VisibilityMiles, Min VisibilityMiles, Max Wind SpeedMPH, Mean Wind SpeedMPH, Max Gust SpeedMPH,PrecipitationIn, CloudCover, Events, WindDirDegrees
2011-11-1,86,74,61,57,54,51,78,54,31,30.15,30.05,29.96,10,10,10,20,11,23,0.00,0,,147
2011-11-2,92,79,65,64,59,54,81,58,29,30.08,29.97,29.89,10,10,10,23,10,28,0.00,1,,162
2011-11-3,78,66,53,52,31,25,47,31,22,30.44,30.30,30.12,10,10,6,35,14,40,0.00,3,,346
2011-11-4,73,60,46,33,25,20,44,29,16,30.28,30.17,30.06,10,10,10,13,7,16,0.00,0,,99
2011-11-5,85,69,53,66,54,37,76,58,44,30.06,29.92,29.77,10,10,10,24,12,30,0.00,1,,136
2011-11-6,91,81,71,70,68,65,87,70,45,29.97,29.89,29.83,10,10,10,25,13,30,0.00,5,,149
2011-11-7,87,82,76,69,67,65,79,66,50,29.97,29.89,29.81,10,10,10,23,17,29,0.00,5,,151
2011-11-8,88,78,68,67,62,49,81,61,42,30.08,29.90,29.82,10,10,10,24,12,20,0.00,2,,74
2011-11-9,68,63,57,42,37,29,55,41,31,30.42,30.28,30.09,10,10,10,23,12,27,T,6,,359
2011-11-10,68,57,46,37,30,25,51,37,23,30.54,30.42,30.35,10,10,10,18,8,22,0.00,1,,13
2011-11-11,74,57,40,43,30,24,67,37,19,30.34,30.21,30.07,10,10,10,18,8,23,0.00,0,,155
2011-11-12,83,68,53,59,51,44,83,58,34,30.05,29.97,29.89,10,10,10,15,8,18,0.00,0,,152
2011-11-13,89,76,63,67,60,57,93,64,34,29.94,29.87,29.79,10,10,8,16,9,18,0.00,0,,162
2011-11-14,88,79,70,68,66,64,90,72,45,29.88,29.79,29.67,10,8,4,17,11,21,0.00,2,,145
2011-11-15,83,73,62,70,59,50,87,70,33,29.86,29.79,29.69,10,8,2,40,9,51,0.20,3,Rain-Thunderstorm,293
2011-11-16,87,72,56,54,48,41,83,47,24,30.16,29.95,29.83,10,10,10,15,6,17,0.00,0,,355
2011-11-17,69,62,54,53,45,41,74,60,48,30.43,30.30,30.16,10,10,10,24,12,30,0.00,3,,43
2011-11-18,80,68,55,62,55,48,83,67,47,30.20,30.06,29.93,10,10,10,20,7,24,0.00,4,,141
2011-11-19,93,80,66,67,62,54,93,62,28,29.93,29.87,29.80,10,10,9,20,10,25,0.00,0,,159
2011-11-20,93,83,72,68,65,61,84,62,37,30.00,29.94,29.87,10,10,10,20,13,24,0.00,1,,156
2011-11-21,92,82,71,68,66,61,87,64,38,30.00,29.89,29.77,10,10,10,25,16,31,0.00,0,,156
2011-11-22,85,73,61,67,53,35,87,54,18,30.18,30.00,29.82,10,10,10,24,11,28,0.00,2,,6
2011-11-23,76,63,50,49,47,44,86,58,34,30.35,30.25,30.19,10,10,10,22,7,25,0.00,0,,64
2011-11-24,80,65,50,57,52,45,100,71,32,30.30,30.22,30.11,10,8,0,18,8,22,0.00,3,Fog,139
2011-11-25,84,71,57,62,58,53,83,64,43,30.10,29.94,29.78,10,10,10,24,12,30,0.00,2,,133
2011-11-26,80,70,60,64,48,20,81,50,22,30.35,30.03,29.84,10,10,6,32,16,41,0.00,1,,334
2011-11-27,62,55,47,22,14,5,32,21,10,30.52,30.39,30.32,10,9,5,32,18,40,0.00,0,,322
2011-11-28,78,58,37,20,15,10,44,22,9,30.31,30.16,30.04,10,10,10,14,6,16,0.00,0,,230
2011-11-29,79,61,42,27,25,19,53,28,12,30.23,30.12,30.04,10,10,10,17,8,20,0.00,0,,26
2011-11-30,72,57,41,48,32,26,59,40,23,30.28,30.17,30.06,10,10,10,15,7,18,0.00,0,,93